sensor_id;sensor_type;location;lat;lon;timestamp;temperature;humidity
2002;DHT22;1003;48.002;7.788;2023-04-10T00:02:20;8.30;99.90
2002;DHT22;1003;48.002;7.788;2023-04-10T00:04:47;8.20;99.90
2002;DHT22;1003;48.002;7.788;2023-04-10T00:07:14;8.10;99.90
2002;DHT22;1003;48.002;7.788;2023-04-10T00:09:41;8.00;99.90
2002;DHT22;1003;48.002;7.788;2023-04-10T00:12:08;7.80;99.90
2002;DHT22;1003;48.002;7.788;2023-04-10T00:14:36;7.60;99.90
2002;DHT22;1003;48.002;7.788;2023-04-10T00:17:03;7.30;99.90
2002;DHT22;1003;48.002;7.788;2023-04-10T00:19:31;7.10;99.90
2002;DHT22;1003;48.002;7.788;2023-04-10T00:21:59;6.90;99.90
2002;DHT22;1003;48.002;7.788;2023-04-10T00:24:26;6.70;99.90
2002;DHT22;1003;48.002;7.788;2023-04-10T00:26:53;6.40;99.90
2002;DHT22;1003;48.002;7.788;2023-04-10T00:29:21;6.30;99.90
2002;DHT22;1003;48.002;7.788;2023-04-10T00:31:48;6.10;99.90
2002;DHT22;1003;48.002;7.788;2023-04-10T00:34:15;6.10;99.90
2002;DHT22;1003;48.002;7.788;2023-04-10T00:36:44;6.00;99.90
2002;DHT22;1003;48.002;7.788;2023-04-10T00:39:11;5.90;99.90
2002;DHT22;1003;48.002;7.788;2023-04-10T00:41:39;6.10;99.90
2002;DHT22;1003;48.002;7.788;2023-04-10T00:44:06;6.10;99.90
2002;DHT22;1003;48.002;7.788;2023-04-10T00:46:33;6.10;99.90
2002;DHT22;1003;48.002;7.788;2023-04-10T00:49:03;6.10;99.90
2002;DHT22;1003;48.002;7.788;2023-04-10T00:51:31;5.90;99.90
2002;DHT22;1003;48.002;7.788;2023-04-10T00:54:00;5.80;99.90
2002;DHT22;1003;48.002;7.788;2023-04-10T00:56:29;5.80;99.90
2002;DHT22;1003;48.002;7.788;2023-04-10T00:58:56;5.80;99.90
2002;DHT22;1003;48.002;7.788;2023-04-10T01:01:23;5.70;99.90
2002;DHT22;1003;48.002;7.788;2023-04-10T01:03:51;5.70;99.90
2002;DHT22;1003;48.002;7.788;2023-04-10T01:06:29;5.70;99.90
2002;DHT22;1003;48.002;7.788;2023-04-10T01:09:10;5.70;99.90
2002;DHT22;1003;48.002;7.788;2023-04-10T01:11:48;5.70;99.90
2002;DHT22;1003;48.002;7.788;2023-04-10T01:14:25;5.80;99.90
2002;DHT22;1003;48.002;7.788;2023-04-10T01:17:00;5.80;99.90
2002;DHT22;1003;48.002;7.788;2023-04-10T01:19:57;6.00;99.90
2002;DHT22;1003;48.002;7.788;2023-04-10T01:22:33;5.90;99.90
2002;DHT22;1003;48.002;7.788;2023-04-10T01:25:32;5.70;99.90
2002;DHT22;1003;48.002;7.788;2023-04-10T01:28:15;5.70;99.90
2002;DHT22;1003;48.002;7.788;2023-04-10T01:30:58;5.60;99.90
2002;DHT22;1003;48.002;7.788;2023-04-10T01:33:32;5.60;99.90
2002;DHT22;1003;48.002;7.788;2023-04-10T01:36:05;5.70;99.90
2002;DHT22;1003;48.002;7.788;2023-04-10T01:38:38;5.80;99.90
2002;DHT22;1003;48.002;7.788;2023-04-10T01:41:08;5.80;99.90
2002;DHT22;1003;48.002;7.788;2023-04-10T01:43:36;5.90;99.90
2002;DHT22;1003;48.002;7.788;2023-04-10T01:46:07;5.90;99.90
2002;DHT22;1003;48.002;7.788;2023-04-10T01:48:37;5.70;99.90
2002;DHT22;1003;48.002;7.788;2023-04-10T01:51:07;5.40;99.90
2002;DHT22;1003;48.002;7.788;2023-04-10T01:53:35;4.80;99.90
2002;DHT22;1003;48.002;7.788;2023-04-10T01:56:05;4.50;99.90
2002;DHT22;1003;48.002;7.788;2023-04-10T01:58:34;4.30;99.90
2002;DHT22;1003;48.002;7.788;2023-04-10T02:01:01;4.10;99.90
2002;DHT22;1003;48.002;7.788;2023-04-10T02:03:30;4.00;99.90
2002;DHT22;1003;48.002;7.788;2023-04-10T02:06:06;3.90;99.90
2002;DHT22;1003;48.002;7.788;2023-04-10T02:08:45;4.00;99.90
2002;DHT22;1003;48.002;7.788;2023-04-10T02:11:28;4.10;99.90
2002;DHT22;1003;48.002;7.788;2023-04-10T02:14:04;4.20;99.90
2002;DHT22;1003;48.002;7.788;2023-04-10T02:16:37;4.30;99.90
2002;DHT22;1003;48.002;7.788;2023-04-10T02:19:09;4.40;99.90
2002;DHT22;1003;48.002;7.788;2023-04-10T02:21:38;4.50;99.90
2002;DHT22;1003;48.002;7.788;2023-04-10T02:24:08;4.50;99.90
2002;DHT22;1003;48.002;7.788;2023-04-10T02:26:45;4.40;99.90
2002;DHT22;1003;48.002;7.788;2023-04-10T02:29:12;4.40;99.90
2002;DHT22;1003;48.002;7.788;2023-04-10T02:31:40;4.40;99.90
2002;DHT22;1003;48.002;7.788;2023-04-10T02:34:08;4.40;99.90
2002;DHT22;1003;48.002;7.788;2023-04-10T02:36:36;4.40;99.90
2002;DHT22;1003;48.002;7.788;2023-04-10T02:39:04;4.40;99.90
2002;DHT22;1003;48.002;7.788;2023-04-10T02:41:32;4.30;99.90
2002;DHT22;1003;48.002;7.788;2023-04-10T02:43:59;4.30;99.90
2002;DHT22;1003;48.002;7.788;2023-04-10T02:46:26;4.20;99.90
2002;DHT22;1003;48.002;7.788;2023-04-10T02:48:54;4.20;99.90
2002;DHT22;1003;48.002;7.788;2023-04-10T02:51:22;4.10;99.90
2002;DHT22;1003;48.002;7.788;2023-04-10T02:53:50;4.00;99.90
2002;DHT22;1003;48.002;7.788;2023-04-10T02:56:17;4.00;99.90
2002;DHT22;1003;48.002;7.788;2023-04-10T02:58:45;4.00;99.90
2002;DHT22;1003;48.002;7.788;2023-04-10T03:01:12;4.00;99.90
2002;DHT22;1003;48.002;7.788;2023-04-10T03:03:39;4.00;99.90
2002;DHT22;1003;48.002;7.788;2023-04-10T03:06:07;3.90;99.90
2002;DHT22;1003;48.002;7.788;2023-04-10T03:08:36;3.90;99.90
2002;DHT22;1003;48.002;7.788;2023-04-10T03:11:03;3.80;99.90
2002;DHT22;1003;48.002;7.788;2023-04-10T03:13:30;3.80;99.90
2002;DHT22;1003;48.002;7.788;2023-04-10T03:15:57;3.80;99.90
2002;DHT22;1003;48.002;7.788;2023-04-10T03:18:24;3.70;99.90
2002;DHT22;1003;48.002;7.788;2023-04-10T03:20:51;3.70;99.90
2002;DHT22;1003;48.002;7.788;2023-04-10T03:23:19;3.70;99.90
2002;DHT22;1003;48.002;7.788;2023-04-10T03:25:50;3.70;99.90
2002;DHT22;1003;48.002;7.788;2023-04-10T03:28:19;3.90;99.90
2002;DHT22;1003;48.002;7.788;2023-04-10T03:30:47;4.00;99.90
2002;DHT22;1003;48.002;7.788;2023-04-10T03:33:14;4.10;99.90
2002;DHT22;1003;48.002;7.788;2023-04-10T03:35:41;4.20;99.90
2002;DHT22;1003;48.002;7.788;2023-04-10T03:38:08;4.30;99.90
2002;DHT22;1003;48.002;7.788;2023-04-10T03:40:35;4.40;99.90
2002;DHT22;1003;48.002;7.788;2023-04-10T03:43:04;4.40;99.90
2002;DHT22;1003;48.002;7.788;2023-04-10T03:45:31;4.50;99.90
2002;DHT22;1003;48.002;7.788;2023-04-10T03:47:59;4.50;99.90
2002;DHT22;1003;48.002;7.788;2023-04-10T03:50:26;4.50;99.90
2002;DHT22;1003;48.002;7.788;2023-04-10T03:52:53;4.50;99.90
2002;DHT22;1003;48.002;7.788;2023-04-10T03:55:20;4.50;99.90
2002;DHT22;1003;48.002;7.788;2023-04-10T03:57:48;4.80;99.90
2002;DHT22;1003;48.002;7.788;2023-04-10T04:00:17;4.80;99.90
2002;DHT22;1003;48.002;7.788;2023-04-10T04:02:45;4.80;99.90
2002;DHT22;1003;48.002;7.788;2023-04-10T04:05:14;4.90;99.90
2002;DHT22;1003;48.002;7.788;2023-04-10T04:07:42;4.90;99.90
2002;DHT22;1003;48.002;7.788;2023-04-10T04:10:09;4.90;99.90
2002;DHT22;1003;48.002;7.788;2023-04-10T04:12:36;4.90;99.90
2002;DHT22;1003;48.002;7.788;2023-04-10T04:15:04;4.90;99.90
2002;DHT22;1003;48.002;7.788;2023-04-10T04:17:33;4.90;99.90
2002;DHT22;1003;48.002;7.788;2023-04-10T04:20:00;4.90;99.90
2002;DHT22;1003;48.002;7.788;2023-04-10T04:22:28;5.00;99.90
2002;DHT22;1003;48.002;7.788;2023-04-10T04:24:55;5.00;99.90
2002;DHT22;1003;48.002;7.788;2023-04-10T04:27:22;5.10;99.90
2002;DHT22;1003;48.002;7.788;2023-04-10T04:29:49;5.10;99.90
2002;DHT22;1003;48.002;7.788;2023-04-10T04:32:16;5.00;99.90
2002;DHT22;1003;48.002;7.788;2023-04-10T04:34:44;5.00;99.90
2002;DHT22;1003;48.002;7.788;2023-04-10T04:37:11;5.00;99.90
2002;DHT22;1003;48.002;7.788;2023-04-10T04:39:38;5.10;99.90
2002;DHT22;1003;48.002;7.788;2023-04-10T04:42:05;5.10;99.90
2002;DHT22;1003;48.002;7.788;2023-04-10T04:44:32;5.10;99.90
2002;DHT22;1003;48.002;7.788;2023-04-10T04:46:59;4.90;99.90
2002;DHT22;1003;48.002;7.788;2023-04-10T04:49:26;4.90;99.90
2002;DHT22;1003;48.002;7.788;2023-04-10T04:51:55;4.80;99.90
2002;DHT22;1003;48.002;7.788;2023-04-10T04:54:22;4.90;99.90
2002;DHT22;1003;48.002;7.788;2023-04-10T04:56:49;4.80;99.90
2002;DHT22;1003;48.002;7.788;2023-04-10T04:59:16;4.70;99.90
2002;DHT22;1003;48.002;7.788;2023-04-10T05:01:43;4.70;99.90
2002;DHT22;1003;48.002;7.788;2023-04-10T05:04:10;4.60;99.90
2002;DHT22;1003;48.002;7.788;2023-04-10T05:06:37;4.60;99.90
2002;DHT22;1003;48.002;7.788;2023-04-10T05:09:05;4.50;99.90
2002;DHT22;1003;48.002;7.788;2023-04-10T05:11:32;4.40;99.90
2002;DHT22;1003;48.002;7.788;2023-04-10T05:13:59;4.30;99.90
2002;DHT22;1003;48.002;7.788;2023-04-10T05:16:26;4.00;99.90
2002;DHT22;1003;48.002;7.788;2023-04-10T05:18:53;3.60;99.90
2002;DHT22;1003;48.002;7.788;2023-04-10T05:21:22;3.30;99.90
2002;DHT22;1003;48.002;7.788;2023-04-10T05:23:50;3.00;99.90
2002;DHT22;1003;48.002;7.788;2023-04-10T05:26:18;2.90;99.90
2002;DHT22;1003;48.002;7.788;2023-04-10T05:28:45;2.80;99.90
2002;DHT22;1003;48.002;7.788;2023-04-10T05:31:12;3.00;99.90
2002;DHT22;1003;48.002;7.788;2023-04-10T05:33:39;3.10;99.90
2002;DHT22;1003;48.002;7.788;2023-04-10T05:36:07;3.20;99.90
2002;DHT22;1003;48.002;7.788;2023-04-10T05:38:35;3.30;99.90
2002;DHT22;1003;48.002;7.788;2023-04-10T05:41:01;3.40;99.90
2002;DHT22;1003;48.002;7.788;2023-04-10T05:43:30;3.50;99.90
2002;DHT22;1003;48.002;7.788;2023-04-10T05:45:57;3.70;99.90
2002;DHT22;1003;48.002;7.788;2023-04-10T05:48:24;3.90;99.90
2002;DHT22;1003;48.002;7.788;2023-04-10T05:50:51;4.00;99.90
2002;DHT22;1003;48.002;7.788;2023-04-10T05:53:19;4.10;99.90
2002;DHT22;1003;48.002;7.788;2023-04-10T05:55:48;4.30;99.90
2002;DHT22;1003;48.002;7.788;2023-04-10T05:58:16;4.40;99.90
2002;DHT22;1003;48.002;7.788;2023-04-10T06:00:45;4.50;99.90
2002;DHT22;1003;48.002;7.788;2023-04-10T06:03:12;4.50;99.90
2002;DHT22;1003;48.002;7.788;2023-04-10T06:05:39;4.60;99.90
2002;DHT22;1003;48.002;7.788;2023-04-10T06:08:06;4.80;99.90
2002;DHT22;1003;48.002;7.788;2023-04-10T06:10:33;5.00;99.90
2002;DHT22;1003;48.002;7.788;2023-04-10T06:13:01;5.40;99.90
2002;DHT22;1003;48.002;7.788;2023-04-10T06:15:28;6.20;99.90
2002;DHT22;1003;48.002;7.788;2023-04-10T06:17:56;7.10;99.90
2002;DHT22;1003;48.002;7.788;2023-04-10T06:20:24;7.40;99.90
2002;DHT22;1003;48.002;7.788;2023-04-10T06:22:51;7.60;99.90
2002;DHT22;1003;48.002;7.788;2023-04-10T06:25:18;7.80;99.90
2002;DHT22;1003;48.002;7.788;2023-04-10T06:27:45;8.00;99.90
2002;DHT22;1003;48.002;7.788;2023-04-10T06:30:12;8.20;99.90
2002;DHT22;1003;48.002;7.788;2023-04-10T06:32:39;8.30;99.90
2002;DHT22;1003;48.002;7.788;2023-04-10T06:35:08;8.40;99.90
2002;DHT22;1003;48.002;7.788;2023-04-10T06:37:35;8.60;99.90
2002;DHT22;1003;48.002;7.788;2023-04-10T06:40:04;8.90;99.90
2002;DHT22;1003;48.002;7.788;2023-04-10T06:42:32;9.10;99.90
2002;DHT22;1003;48.002;7.788;2023-04-10T06:45:00;9.40;99.90
2002;DHT22;1003;48.002;7.788;2023-04-10T06:47:28;9.80;99.90
2002;DHT22;1003;48.002;7.788;2023-04-10T06:49:55;10.20;99.90
2002;DHT22;1003;48.002;7.788;2023-04-10T06:52:23;10.50;99.90
2002;DHT22;1003;48.002;7.788;2023-04-10T06:54:51;10.70;99.90
2002;DHT22;1003;48.002;7.788;2023-04-10T06:57:18;10.80;99.90
2002;DHT22;1003;48.002;7.788;2023-04-10T06:59:45;11.10;99.90
2002;DHT22;1003;48.002;7.788;2023-04-10T07:02:12;10.90;99.90
2002;DHT22;1003;48.002;7.788;2023-04-10T07:04:39;10.90;99.90
2002;DHT22;1003;48.002;7.788;2023-04-10T07:07:08;10.80;99.90
2002;DHT22;1003;48.002;7.788;2023-04-10T07:09:38;10.90;99.90
2002;DHT22;1003;48.002;7.788;2023-04-10T07:12:05;11.00;99.90
2002;DHT22;1003;48.002;7.788;2023-04-10T07:14:32;11.00;99.90
2002;DHT22;1003;48.002;7.788;2023-04-10T07:17:00;11.00;99.90
2002;DHT22;1003;48.002;7.788;2023-04-10T07:19:27;11.20;99.90
2002;DHT22;1003;48.002;7.788;2023-04-10T07:21:55;11.30;99.90
2002;DHT22;1003;48.002;7.788;2023-04-10T07:24:22;11.60;99.90
2002;DHT22;1003;48.002;7.788;2023-04-10T07:26:51;11.90;99.90
2002;DHT22;1003;48.002;7.788;2023-04-10T07:29:18;12.00;99.90
2002;DHT22;1003;48.002;7.788;2023-04-10T07:31:45;12.40;99.90
2002;DHT22;1003;48.002;7.788;2023-04-10T07:34:13;12.70;99.90
2002;DHT22;1003;48.002;7.788;2023-04-10T07:36:40;12.70;99.90
2002;DHT22;1003;48.002;7.788;2023-04-10T07:39:07;12.90;99.90
2002;DHT22;1003;48.002;7.788;2023-04-10T07:41:34;13.00;99.90
2002;DHT22;1003;48.002;7.788;2023-04-10T07:44:02;12.90;99.90
2002;DHT22;1003;48.002;7.788;2023-04-10T07:46:30;13.00;99.90
2002;DHT22;1003;48.002;7.788;2023-04-10T07:48:57;13.00;99.90
2002;DHT22;1003;48.002;7.788;2023-04-10T07:51:24;13.20;99.90
2002;DHT22;1003;48.002;7.788;2023-04-10T07:53:52;13.40;99.90
2002;DHT22;1003;48.002;7.788;2023-04-10T07:56:19;13.40;99.90
2002;DHT22;1003;48.002;7.788;2023-04-10T07:58:47;13.40;99.90
2002;DHT22;1003;48.002;7.788;2023-04-10T08:01:16;13.40;99.90
2002;DHT22;1003;48.002;7.788;2023-04-10T08:03:46;13.60;99.90
2002;DHT22;1003;48.002;7.788;2023-04-10T08:06:13;13.50;99.90
2002;DHT22;1003;48.002;7.788;2023-04-10T08:08:41;13.30;99.90
2002;DHT22;1003;48.002;7.788;2023-04-10T08:11:21;13.40;99.90
2002;DHT22;1003;48.002;7.788;2023-04-10T08:13:50;13.60;99.90
2002;DHT22;1003;48.002;7.788;2023-04-10T08:16:23;13.60;99.90
2002;DHT22;1003;48.002;7.788;2023-04-10T08:18:51;13.80;99.90
2002;DHT22;1003;48.002;7.788;2023-04-10T08:21:19;13.90;99.90
2002;DHT22;1003;48.002;7.788;2023-04-10T08:23:49;13.90;99.90
2002;DHT22;1003;48.002;7.788;2023-04-10T08:26:16;14.00;99.90
2002;DHT22;1003;48.002;7.788;2023-04-10T08:28:45;14.00;99.90
2002;DHT22;1003;48.002;7.788;2023-04-10T08:31:14;13.80;99.90
2002;DHT22;1003;48.002;7.788;2023-04-10T08:33:43;13.80;99.90
2002;DHT22;1003;48.002;7.788;2023-04-10T08:36:11;13.70;99.90
2002;DHT22;1003;48.002;7.788;2023-04-10T08:38:40;13.60;99.90
2002;DHT22;1003;48.002;7.788;2023-04-10T08:41:09;13.50;99.90
2002;DHT22;1003;48.002;7.788;2023-04-10T08:43:36;13.20;99.90
2002;DHT22;1003;48.002;7.788;2023-04-10T08:46:04;13.50;99.90
2002;DHT22;1003;48.002;7.788;2023-04-10T08:48:38;13.70;99.90
2002;DHT22;1003;48.002;7.788;2023-04-10T08:51:17;13.80;99.90
2002;DHT22;1003;48.002;7.788;2023-04-10T08:53:49;13.90;99.90
2002;DHT22;1003;48.002;7.788;2023-04-10T08:56:17;13.90;99.90
2002;DHT22;1003;48.002;7.788;2023-04-10T08:58:45;14.20;99.90
2002;DHT22;1003;48.002;7.788;2023-04-10T09:01:13;14.30;99.90
2002;DHT22;1003;48.002;7.788;2023-04-10T09:03:41;14.30;99.90
2002;DHT22;1003;48.002;7.788;2023-04-10T09:06:09;14.40;99.90
2002;DHT22;1003;48.002;7.788;2023-04-10T09:08:36;14.40;99.90
2002;DHT22;1003;48.002;7.788;2023-04-10T09:11:04;14.50;99.90
2002;DHT22;1003;48.002;7.788;2023-04-10T09:13:36;14.40;99.90
2002;DHT22;1003;48.002;7.788;2023-04-10T09:16:05;14.40;99.90
2002;DHT22;1003;48.002;7.788;2023-04-10T09:18:47;14.50;99.90
2002;DHT22;1003;48.002;7.788;2023-04-10T09:21:18;14.60;99.90
2002;DHT22;1003;48.002;7.788;2023-04-10T09:23:47;14.70;99.90
2002;DHT22;1003;48.002;7.788;2023-04-10T09:26:25;14.80;99.90
2002;DHT22;1003;48.002;7.788;2023-04-10T09:28:58;14.70;99.90
2002;DHT22;1003;48.002;7.788;2023-04-10T09:31:28;14.70;99.90
2002;DHT22;1003;48.002;7.788;2023-04-10T09:34:07;14.70;99.90
2002;DHT22;1003;48.002;7.788;2023-04-10T09:36:40;14.80;99.90
2002;DHT22;1003;48.002;7.788;2023-04-10T09:39:08;15.00;99.90
2002;DHT22;1003;48.002;7.788;2023-04-10T09:41:50;15.20;99.90
2002;DHT22;1003;48.002;7.788;2023-04-10T09:44:28;15.30;99.90
2002;DHT22;1003;48.002;7.788;2023-04-10T09:46:56;15.50;99.90
2002;DHT22;1003;48.002;7.788;2023-04-10T09:49:23;15.60;99.90
2002;DHT22;1003;48.002;7.788;2023-04-10T09:51:52;15.50;99.90
2002;DHT22;1003;48.002;7.788;2023-04-10T09:54:34;15.50;99.90
2002;DHT22;1003;48.002;7.788;2023-04-10T09:57:03;15.60;99.90
2002;DHT22;1003;48.002;7.788;2023-04-10T09:59:35;15.60;99.90
2002;DHT22;1003;48.002;7.788;2023-04-10T10:02:05;15.60;99.90
2002;DHT22;1003;48.002;7.788;2023-04-10T10:04:33;15.50;99.90
2002;DHT22;1003;48.002;7.788;2023-04-10T10:07:03;15.50;99.90
2002;DHT22;1003;48.002;7.788;2023-04-10T10:09:30;15.40;99.90
2002;DHT22;1003;48.002;7.788;2023-04-10T10:11:58;15.60;99.90
2002;DHT22;1003;48.002;7.788;2023-04-10T10:14:26;15.90;99.90
2002;DHT22;1003;48.002;7.788;2023-04-10T10:16:55;15.80;99.90
2002;DHT22;1003;48.002;7.788;2023-04-10T10:19:30;16.00;99.90
2002;DHT22;1003;48.002;7.788;2023-04-10T10:22:06;16.20;99.90
2002;DHT22;1003;48.002;7.788;2023-04-10T10:24:37;16.30;99.90
2002;DHT22;1003;48.002;7.788;2023-04-10T10:27:12;16.60;99.90
2002;DHT22;1003;48.002;7.788;2023-04-10T10:29:43;16.50;99.90
2002;DHT22;1003;48.002;7.788;2023-04-10T10:32:16;16.60;99.90
2002;DHT22;1003;48.002;7.788;2023-04-10T10:34:43;16.70;99.90
2002;DHT22;1003;48.002;7.788;2023-04-10T10:37:13;16.80;99.90
2002;DHT22;1003;48.002;7.788;2023-04-10T10:39:46;16.90;99.90
2002;DHT22;1003;48.002;7.788;2023-04-10T10:42:25;17.00;99.90
2002;DHT22;1003;48.002;7.788;2023-04-10T10:45:10;17.10;99.90
2002;DHT22;1003;48.002;7.788;2023-04-10T10:47:41;17.40;99.90
2002;DHT22;1003;48.002;7.788;2023-04-10T10:50:11;17.90;99.90
2002;DHT22;1003;48.002;7.788;2023-04-10T10:52:41;18.00;99.90
2002;DHT22;1003;48.002;7.788;2023-04-10T10:55:32;18.10;99.90
2002;DHT22;1003;48.002;7.788;2023-04-10T10:58:04;17.90;99.90
2002;DHT22;1003;48.002;7.788;2023-04-10T11:01:03;18.10;99.90
2002;DHT22;1003;48.002;7.788;2023-04-10T11:03:33;18.50;99.90
2002;DHT22;1003;48.002;7.788;2023-04-10T11:06:02;18.80;99.90
2002;DHT22;1003;48.002;7.788;2023-04-10T11:08:37;18.90;99.90
2002;DHT22;1003;48.002;7.788;2023-04-10T11:11:18;18.70;99.90
2002;DHT22;1003;48.002;7.788;2023-04-10T11:14:11;19.00;99.90
2002;DHT22;1003;48.002;7.788;2023-04-10T11:16:44;19.40;99.90
2002;DHT22;1003;48.002;7.788;2023-04-10T11:19:13;19.10;99.90
2002;DHT22;1003;48.002;7.788;2023-04-10T11:22:06;19.30;99.90
2002;DHT22;1003;48.002;7.788;2023-04-10T11:24:56;19.30;99.90
2002;DHT22;1003;48.002;7.788;2023-04-10T11:27:45;19.10;99.90
2002;DHT22;1003;48.002;7.788;2023-04-10T11:30:30;19.20;99.90
2002;DHT22;1003;48.002;7.788;2023-04-10T11:32:59;19.20;99.90
2002;DHT22;1003;48.002;7.788;2023-04-10T11:35:29;19.20;99.90
2002;DHT22;1003;48.002;7.788;2023-04-10T11:38:24;19.30;99.90
2002;DHT22;1003;48.002;7.788;2023-04-10T11:41:00;19.30;99.90
2002;DHT22;1003;48.002;7.788;2023-04-10T11:43:30;19.50;99.90
2002;DHT22;1003;48.002;7.788;2023-04-10T11:46:00;19.60;99.90
2002;DHT22;1003;48.002;7.788;2023-04-10T11:48:29;19.40;99.90
2002;DHT22;1003;48.002;7.788;2023-04-10T11:50:56;19.70;99.90
2002;DHT22;1003;48.002;7.788;2023-04-10T11:53:26;19.80;99.90
2002;DHT22;1003;48.002;7.788;2023-04-10T11:55:55;19.90;99.90
2002;DHT22;1003;48.002;7.788;2023-04-10T11:58:24;20.10;99.90
2002;DHT22;1003;48.002;7.788;2023-04-10T12:00:59;20.20;99.90
2002;DHT22;1003;48.002;7.788;2023-04-10T12:03:35;20.30;99.90
2002;DHT22;1003;48.002;7.788;2023-04-10T12:06:06;20.80;99.90
2002;DHT22;1003;48.002;7.788;2023-04-10T12:08:37;20.70;99.90
2002;DHT22;1003;48.002;7.788;2023-04-10T12:11:07;20.40;99.90
2002;DHT22;1003;48.002;7.788;2023-04-10T12:13:36;20.50;99.90
2002;DHT22;1003;48.002;7.788;2023-04-10T12:16:05;21.10;99.90
2002;DHT22;1003;48.002;7.788;2023-04-10T12:18:35;21.30;99.90
2002;DHT22;1003;48.002;7.788;2023-04-10T12:21:04;21.50;99.90
2002;DHT22;1003;48.002;7.788;2023-04-10T12:23:34;21.70;99.90
2002;DHT22;1003;48.002;7.788;2023-04-10T12:26:09;21.70;99.90
2002;DHT22;1003;48.002;7.788;2023-04-10T12:28:39;21.40;99.90
2002;DHT22;1003;48.002;7.788;2023-04-10T12:31:08;20.90;99.90
2002;DHT22;1003;48.002;7.788;2023-04-10T12:33:36;21.60;99.90
2002;DHT22;1003;48.002;7.788;2023-04-10T12:36:03;21.80;99.90
2002;DHT22;1003;48.002;7.788;2023-04-10T12:38:38;21.90;99.90
2002;DHT22;1003;48.002;7.788;2023-04-10T12:41:08;21.80;99.90
2002;DHT22;1003;48.002;7.788;2023-04-10T12:43:38;21.60;99.90
2002;DHT22;1003;48.002;7.788;2023-04-10T12:46:07;21.40;99.90
2002;DHT22;1003;48.002;7.788;2023-04-10T12:48:35;21.70;99.90
2002;DHT22;1003;48.002;7.788;2023-04-10T12:51:02;21.80;99.90
2002;DHT22;1003;48.002;7.788;2023-04-10T12:53:29;21.90;99.90
2002;DHT22;1003;48.002;7.788;2023-04-10T12:56:02;22.00;99.90
2002;DHT22;1003;48.002;7.788;2023-04-10T12:58:37;21.70;99.90
2002;DHT22;1003;48.002;7.788;2023-04-10T13:01:07;21.50;99.90
2002;DHT22;1003;48.002;7.788;2023-04-10T13:03:35;21.80;99.90
2002;DHT22;1003;48.002;7.788;2023-04-10T13:06:04;21.80;99.90
2002;DHT22;1003;48.002;7.788;2023-04-10T13:08:33;21.60;97.30
2002;DHT22;1003;48.002;7.788;2023-04-10T13:11:00;21.40;96.00
2002;DHT22;1003;48.002;7.788;2023-04-10T13:13:29;20.80;94.50
2002;DHT22;1003;48.002;7.788;2023-04-10T13:15:57;21.10;96.00
2002;DHT22;1003;48.002;7.788;2023-04-10T13:18:24;21.30;95.20
2002;DHT22;1003;48.002;7.788;2023-04-10T13:20:52;21.60;94.70
2002;DHT22;1003;48.002;7.788;2023-04-10T13:23:19;21.90;94.40
2002;DHT22;1003;48.002;7.788;2023-04-10T13:25:46;21.60;94.20
2002;DHT22;1003;48.002;7.788;2023-04-10T13:28:13;21.90;94.70
2002;DHT22;1003;48.002;7.788;2023-04-10T13:30:42;21.90;96.00
2002;DHT22;1003;48.002;7.788;2023-04-10T13:33:09;21.60;95.70
2002;DHT22;1003;48.002;7.788;2023-04-10T13:35:36;22.00;95.50
2002;DHT22;1003;48.002;7.788;2023-04-10T13:38:04;22.30;95.90
2002;DHT22;1003;48.002;7.788;2023-04-10T13:40:31;21.90;94.80
2002;DHT22;1003;48.002;7.788;2023-04-10T13:42:59;21.60;96.30
2002;DHT22;1003;48.002;7.788;2023-04-10T13:45:26;21.90;95.30
2002;DHT22;1003;48.002;7.788;2023-04-10T13:47:54;22.20;94.60
2002;DHT22;1003;48.002;7.788;2023-04-10T13:50:21;22.00;94.80
2002;DHT22;1003;48.002;7.788;2023-04-10T13:52:48;21.50;94.00
2002;DHT22;1003;48.002;7.788;2023-04-10T13:55:15;21.50;95.20
2002;DHT22;1003;48.002;7.788;2023-04-10T13:57:43;21.20;95.60
2002;DHT22;1003;48.002;7.788;2023-04-10T14:00:10;21.40;95.00
2002;DHT22;1003;48.002;7.788;2023-04-10T14:02:38;21.30;95.10
2002;DHT22;1003;48.002;7.788;2023-04-10T14:05:08;21.40;95.10
2002;DHT22;1003;48.002;7.788;2023-04-10T14:07:35;21.40;94.90
2002;DHT22;1003;48.002;7.788;2023-04-10T14:10:03;21.60;94.70
2002;DHT22;1003;48.002;7.788;2023-04-10T14:12:31;21.70;94.70
2002;DHT22;1003;48.002;7.788;2023-04-10T14:14:58;21.40;96.00
2002;DHT22;1003;48.002;7.788;2023-04-10T14:17:25;21.40;96.80
2002;DHT22;1003;48.002;7.788;2023-04-10T14:19:52;21.40;96.40
2002;DHT22;1003;48.002;7.788;2023-04-10T14:22:21;21.50;96.20
2002;DHT22;1003;48.002;7.788;2023-04-10T14:24:48;21.50;96.40
2002;DHT22;1003;48.002;7.788;2023-04-10T14:27:15;21.60;96.40
2002;DHT22;1003;48.002;7.788;2023-04-10T14:29:42;21.00;95.40
2002;DHT22;1003;48.002;7.788;2023-04-10T14:32:09;21.30;95.80
2002;DHT22;1003;48.002;7.788;2023-04-10T14:34:36;21.20;96.00
2002;DHT22;1003;48.002;7.788;2023-04-10T14:37:03;21.30;97.00
2002;DHT22;1003;48.002;7.788;2023-04-10T14:39:31;21.30;96.50
2002;DHT22;1003;48.002;7.788;2023-04-10T14:41:58;21.20;95.90
2002;DHT22;1003;48.002;7.788;2023-04-10T14:44:28;21.00;96.20
2002;DHT22;1003;48.002;7.788;2023-04-10T14:46:55;20.80;96.90
2002;DHT22;1003;48.002;7.788;2023-04-10T14:49:22;20.60;96.50
2002;DHT22;1003;48.002;7.788;2023-04-10T14:51:49;20.40;97.00
2002;DHT22;1003;48.002;7.788;2023-04-10T14:54:16;20.40;97.40
2002;DHT22;1003;48.002;7.788;2023-04-10T14:56:47;20.50;97.90
2002;DHT22;1003;48.002;7.788;2023-04-10T14:59:15;20.30;96.90
2002;DHT22;1003;48.002;7.788;2023-04-10T15:01:42;20.30;97.80
2002;DHT22;1003;48.002;7.788;2023-04-10T15:04:09;20.30;97.70
2002;DHT22;1003;48.002;7.788;2023-04-10T15:06:37;20.30;97.70
2002;DHT22;1003;48.002;7.788;2023-04-10T15:09:04;20.40;98.20
2002;DHT22;1003;48.002;7.788;2023-04-10T15:11:31;20.30;98.00
2002;DHT22;1003;48.002;7.788;2023-04-10T15:13:59;20.50;98.30
2002;DHT22;1003;48.002;7.788;2023-04-10T15:16:27;20.20;97.80
2002;DHT22;1003;48.002;7.788;2023-04-10T15:18:54;20.00;98.20
2002;DHT22;1003;48.002;7.788;2023-04-10T15:21:22;19.90;98.80
2002;DHT22;1003;48.002;7.788;2023-04-10T15:23:49;19.90;98.80
2002;DHT22;1003;48.002;7.788;2023-04-10T15:26:16;20.10;98.90
2002;DHT22;1003;48.002;7.788;2023-04-10T15:28:43;20.00;98.90
2002;DHT22;1003;48.002;7.788;2023-04-10T15:31:12;20.10;99.30
2002;DHT22;1003;48.002;7.788;2023-04-10T15:33:39;20.00;99.90
2002;DHT22;1003;48.002;7.788;2023-04-10T15:36:06;20.00;99.90
2002;DHT22;1003;48.002;7.788;2023-04-10T15:38:34;20.10;99.40
2002;DHT22;1003;48.002;7.788;2023-04-10T15:41:07;20.00;99.90
2002;DHT22;1003;48.002;7.788;2023-04-10T15:43:35;20.10;99.70
2002;DHT22;1003;48.002;7.788;2023-04-10T15:46:03;20.10;99.90
2002;DHT22;1003;48.002;7.788;2023-04-10T15:48:32;20.10;99.90
2002;DHT22;1003;48.002;7.788;2023-04-10T15:51:02;20.00;99.90
2002;DHT22;1003;48.002;7.788;2023-04-10T15:53:30;20.00;99.90
2002;DHT22;1003;48.002;7.788;2023-04-10T15:55:57;19.90;99.90
2002;DHT22;1003;48.002;7.788;2023-04-10T15:58:24;19.90;99.90
2002;DHT22;1003;48.002;7.788;2023-04-10T16:00:51;19.90;99.90
2002;DHT22;1003;48.002;7.788;2023-04-10T16:03:18;19.70;99.90
2002;DHT22;1003;48.002;7.788;2023-04-10T16:05:47;19.70;99.90
2002;DHT22;1003;48.002;7.788;2023-04-10T16:08:14;19.70;99.90
2002;DHT22;1003;48.002;7.788;2023-04-10T16:10:41;19.70;99.90
2002;DHT22;1003;48.002;7.788;2023-04-10T16:13:08;19.70;99.90
2002;DHT22;1003;48.002;7.788;2023-04-10T16:15:36;19.60;99.90
2002;DHT22;1003;48.002;7.788;2023-04-10T16:18:03;19.60;99.90
2002;DHT22;1003;48.002;7.788;2023-04-10T16:20:32;19.60;99.90
2002;DHT22;1003;48.002;7.788;2023-04-10T16:23:01;19.60;99.90